Time;durP1;ratioP1;P1;durP2;ratioP2;P2;SDS_P1;SDS_P2;PMS_P1;PMS_P2;Temp;Humidity;BMP_temperature;BMP_pressure;BME280_temperature;BME280_humidity;BME280_pressure;Samples;Min_cycle;Max_cycle;Signal;HPM_P1;HPM_P2
2021/07/08 00:00:39;;;;;;;10.23;6.57;;;;;;;32.30;32.39;101459.78;4998699;28;20516;-45
2021/07/08 00:03:08;;;;;;;7.67;4.27;;;;;;;32.40;32.29;101457.66;5007743;28;20801;-48
2021/07/08 00:05:38;;;;;;;9.43;4.30;;;;;;;32.26;32.68;101459.97;4999606;28;20462;-47
2021/07/08 00:08:06;;;;;;;9.57;4.80;;;;;;;32.30;32.52;101457.09;4985063;28;20571;-45
2021/07/08 00:10:38;;;;;;;8.80;5.50;;;;;;;32.59;32.08;101451.56;4999838;28;20573;-45
2021/07/08 00:13:07;;;;;;;9.23;4.60;;;;;;;32.64;31.58;101449.59;5005461;28;20502;-46
2021/07/08 00:15:35;;;;;;;10.70;5.83;;;;;;;32.85;31.43;101452.28;4999503;28;20457;-47
2021/07/08 00:18:06;;;;;;;8.70;4.73;;;;;;;32.79;31.54;101455.22;4998066;28;20486;-46
2021/07/08 00:20:37;;;;;;;10.50;5.63;;;;;;;32.64;31.82;101448.72;4999530;28;20792;-46
2021/07/08 00:23:05;;;;;;;11.70;5.80;;;;;;;32.46;31.79;101457.41;5004231;28;20493;-47
2021/07/08 00:25:33;;;;;;;12.47;5.60;;;;;;;32.29;32.36;101450.03;5001894;28;20544;-46
2021/07/08 00:28:01;;;;;;;12.37;6.03;;;;;;;32.77;31.49;101444.63;4994256;28;20484;-46
2021/07/08 00:30:29;;;;;;;11.60;5.93;;;;;;;32.70;31.77;101453.81;4999322;28;20795;-48
2021/07/08 00:32:56;;;;;;;18.67;5.97;;;;;;;32.71;31.58;101444.88;5001943;28;20489;-47
2021/07/08 00:35:25;;;;;;;11.87;6.07;;;;;;;32.89;31.26;101451.25;4999117;28;20465;-47
2021/07/08 00:37:54;;;;;;;13.00;5.10;;;;;;;32.80;31.43;101448.97;5003537;28;20800;-49
2021/07/08 00:40:22;;;;;;;12.10;5.17;;;;;;;32.77;31.35;101455.31;4999856;28;20491;-46
2021/07/08 00:42:49;;;;;;;12.53;5.00;;;;;;;32.44;32.20;101453.94;5002677;28;20503;-46
2021/07/08 00:45:19;;;;;;;12.20;6.90;;;;;;;32.11;32.87;101451.63;5000121;28;20469;-45
2021/07/08 00:47:47;;;;;;;8.13;4.63;;;;;;;32.01;32.98;101451.13;4993096;28;20927;-48
2021/07/08 00:50:17;;;;;;;12.43;5.93;;;;;;;32.22;32.76;101458.34;4999028;28;20481;-49
2021/07/08 00:52:45;;;;;;;11.77;5.80;;;;;;;32.42;32.43;101457.59;5001417;28;20547;-47
2021/07/08 00:55:15;;;;;;;7.90;5.07;;;;;;;32.49;32.13;101447.56;5000713;28;20461;-49
2021/07/08 00:57:52;;;;;;;11.67;7.37;;;;;;;32.41;32.51;101442.50;4991934;28;20501;-46
2021/07/08 01:00:21;;;;;;;8.17;5.03;;;;;;;32.45;32.36;101442.31;4998768;28;20488;-47
2021/07/08 01:02:50;;;;;;;10.30;5.20;;;;;;;32.53;31.93;101439.34;5002186;28;20493;-47
2021/07/08 01:05:19;;;;;;;10.50;5.57;;;;;;;32.57;32.20;101445.44;4999804;28;20520;-45
2021/07/08 01:07:46;;;;;;;9.17;5.43;;;;;;;32.59;31.81;101446.22;5001161;28;20484;-48
2021/07/08 01:10:16;;;;;;;14.60;5.60;;;;;;;32.46;31.95;101446.72;4999777;28;20491;-50
2021/07/08 01:12:44;;;;;;;15.07;5.03;;;;;;;32.83;31.47;101443.47;4997217;28;20492;-46
2021/07/08 01:15:14;;;;;;;10.50;5.00;;;;;;;32.79;31.54;101442.75;5000638;28;20495;-46
2021/07/08 01:17:43;;;;;;;13.23;6.90;;;;;;;32.41;31.88;101442.50;4990636;28;20500;-48
2021/07/08 01:20:12;;;;;;;7.57;4.57;;;;;;;32.00;33.12;101440.50;4998463;28;20488;-45
2021/07/08 01:22:42;;;;;;;9.77;4.13;;;;;;;32.03;32.99;101437.69;5000980;28;20503;-46
2021/07/08 01:25:11;;;;;;;13.00;4.80;;;;;;;32.40;32.45;101441.63;5000538;28;20465;-45
2021/07/08 01:27:39;;;;;;;10.73;5.63;;;;;;;32.79;31.49;101436.53;4994416;28;20881;-45
2021/07/08 01:30:09;;;;;;;9.17;4.97;;;;;;;32.69;31.71;101447.59;5002928;28;20492;-45
2021/07/08 01:32:37;;;;;;;9.60;4.70;;;;;;;32.79;31.71;101449.88;5000085;28;20498;-48
2021/07/08 01:35:07;;;;;;;12.70;4.60;;;;;;;32.46;32.00;101443.19;5000868;28;20475;-45
2021/07/08 01:37:35;;;;;;;7.43;4.00;;;;;;;32.58;32.03;101447.16;4997157;28;20501;-48
2021/07/08 01:40:04;;;;;;;8.93;4.23;;;;;;;32.69;31.63;101442.25;5001217;28;20492;-45
2021/07/08 01:42:32;;;;;;;8.73;4.53;;;;;;;32.70;31.74;101438.66;4994023;28;20488;-47
2021/07/08 01:45:00;;;;;;;12.50;5.17;;;;;;;33.04;30.92;101446.22;5001394;28;20462;-46
2021/07/08 01:47:27;;;;;;;9.70;4.60;;;;;;;32.98;31.32;101442.88;4996522;28;20495;-44
2021/07/08 01:49:55;;;;;;;8.53;5.13;;;;;;;32.99;31.28;101444.63;4997923;28;20481;-45
2021/07/08 01:52:23;;;;;;;9.37;5.93;;;;;;;32.93;31.29;101439.50;4996525;28;20943;-47
2021/07/08 01:54:50;;;;;;;9.40;6.13;;;;;;;32.71;31.60;101440.38;4997896;28;20894;-47
2021/07/08 01:57:19;;;;;;;10.27;5.13;;;;;;;32.73;31.71;101443.88;4996658;28;20806;-49
2021/07/08 01:59:47;;;;;;;12.20;4.90;;;;;;;32.61;32.07;101441.72;5002551;28;20489;-47
2021/07/08 02:02:14;;;;;;;9.00;4.90;;;;;;;32.42;32.34;101437.13;4996487;28;20498;-47
2021/07/08 02:04:42;;;;;;;8.53;5.27;;;;;;;32.21;32.53;101438.81;5003323;28;20750;-47
2021/07/08 02:07:10;;;;;;;11.40;4.90;;;;;;;31.38;34.40;101440.94;4991260;28;20491;-45
2021/07/08 02:09:37;;;;;;;8.83;5.00;;;;;;;31.42;34.39;101429.22;5003896;28;20601;-45
2021/07/08 02:12:08;;;;;;;8.00;4.60;;;;;;;31.69;33.88;101438.94;4988043;28;20958;-46
2021/07/08 02:14:37;;;;;;;8.80;5.80;;;;;;;31.85;33.78;101434.81;4984090;28;20908;-45
2021/07/08 02:17:05;;;;;;;7.93;5.03;;;;;;;31.98;33.53;101439.69;4979420;28;20492;-48
2021/07/08 02:19:33;;;;;;;6.50;5.10;;;;;;;31.86;33.66;101430.34;4997447;28;20493;-47
2021/07/08 02:22:00;;;;;;;9.43;5.77;;;;;;;31.77;33.83;101436.84;4989520;28;20539;-48
2021/07/08 02:24:28;;;;;;;11.57;5.97;;;;;;;32.12;33.06;101436.47;5004721;28;20559;-45
2021/07/08 02:26:55;;;;;;;15.87;8.40;;;;;;;31.94;33.28;101436.28;4997810;28;20942;-46
2021/07/08 02:29:23;;;;;;;14.77;9.13;;;;;;;32.19;32.95;101438.00;4997109;28;20481;-47
2021/07/08 02:31:52;;;;;;;12.70;8.47;;;;;;;32.30;32.82;101435.75;4996062;28;20490;-48
2021/07/08 02:34:19;;;;;;;11.23;7.30;;;;;;;32.36;32.91;101434.66;4997280;28;20472;-49
2021/07/08 02:36:47;;;;;;;12.43;6.60;;;;;;;32.49;32.56;101429.72;4995303;28;20484;-46
2021/07/08 02:39:14;;;;;;;7.60;5.20;;;;;;;32.40;32.87;101427.44;4996871;28;20494;-45
2021/07/08 02:41:42;;;;;;;7.20;4.60;;;;;;;32.31;32.77;101437.50;4995595;28;20489;-46
2021/07/08 02:44:09;;;;;;;7.83;4.90;;;;;;;32.13;33.17;101430.25;4997218;28;20486;-48
2021/07/08 02:46:37;;;;;;;8.63;5.10;;;;;;;32.14;33.46;101438.16;4995261;28;20508;-47
2021/07/08 02:49:06;;;;;;;9.40;4.80;;;;;;;32.25;32.85;101427.06;4996866;28;20520;-45
2021/07/08 02:51:34;;;;;;;7.73;4.80;;;;;;;32.13;33.20;101428.41;4995619;28;20483;-44
2021/07/08 02:54:01;;;;;;;12.50;5.30;;;;;;;32.30;32.86;101414.41;4996913;28;20463;-48
2021/07/08 02:56:29;;;;;;;8.50;5.00;;;;;;;32.08;33.40;101417.06;4994909;28;20489;-46
2021/07/08 02:58:56;;;;;;;8.90;5.87;;;;;;;32.13;33.28;101425.75;4996822;28;20781;-48
2021/07/08 03:01:24;;;;;;;9.90;5.50;;;;;;;32.09;33.42;101429.47;4995279;28;20487;-45
2021/07/08 03:03:51;;;;;;;10.10;5.47;;;;;;;31.89;33.87;101436.44;4996759;28;20467;-45
2021/07/08 03:06:20;;;;;;;11.27;5.03;;;;;;;32.10;33.29;101433.88;4995198;28;20475;-48
2021/07/08 03:08:48;;;;;;;6.97;4.63;;;;;;;32.12;33.16;101432.03;4996388;28;20483;-46
2021/07/08 03:11:15;;;;;;;8.63;5.73;;;;;;;32.17;33.16;101429.16;4995286;28;20481;-47
2021/07/08 03:13:43;;;;;;;12.20;5.20;;;;;;;32.09;33.39;101420.59;4996574;28;20548;-44
2021/07/08 03:16:11;;;;;;;7.77;5.13;;;;;;;32.24;32.94;101425.31;4995237;28;20460;-46
2021/07/08 03:18:38;;;;;;;7.17;4.87;;;;;;;32.07;33.32;101423.31;4996043;28;20952;-47
2021/07/08 03:21:06;;;;;;;10.13;4.43;;;;;;;31.85;33.81;101417.94;4995093;28;20484;-44
2021/07/08 03:23:36;;;;;;;7.10;4.23;;;;;;;32.08;33.44;101422.38;4996100;28;20840;-48
2021/07/08 03:26:04;;;;;;;8.93;5.20;;;;;;;32.30;33.06;101430.41;4995037;28;20467;-49
2021/07/08 03:28:31;;;;;;;7.40;4.70;;;;;;;31.87;33.64;101429.41;4996129;28;20807;-45
2021/07/08 03:31:05;;;;;;;8.77;5.00;;;;;;;32.17;33.84;101426.50;4985629;28;20593;-46
2021/07/08 03:33:32;;;;;;;9.50;5.43;;;;;;;32.19;33.10;101430.84;4995569;28;20527;-44
2021/07/08 03:36:00;;;;;;;7.70;5.80;;;;;;;32.19;33.56;101436.19;4994114;28;20449;-44
2021/07/08 03:38:28;;;;;;;7.70;5.50;;;;;;;31.90;33.92;101438.19;4996142;28;20551;-50
2021/07/08 03:41:04;;;;;;;7.67;5.17;;;;;;;32.19;33.55;101432.66;5013541;28;20790;-47
2021/07/08 03:43:31;;;;;;;10.43;5.83;;;;;;;32.44;32.77;101437.03;5015059;28;20461;-49
2021/07/08 03:46:04;;;;;;;6.80;5.23;;;;;;;32.34;33.15;101441.84;5004484;28;20467;-45
2021/07/08 03:48:32;;;;;;;8.10;5.27;;;;;;;32.33;33.18;101445.44;5015545;28;20483;-45
2021/07/08 03:51:04;;;;;;;7.20;5.37;;;;;;;32.17;33.53;101454.06;5000073;28;20796;-45
2021/07/08 03:53:31;;;;;;;9.30;6.13;;;;;;;32.30;33.28;101456.25;5015690;28;20488;-49
2021/07/08 03:56:06;;;;;;;8.37;4.50;;;;;;;32.25;33.30;101456.41;5005253;28;20471;-45
2021/07/08 03:58:34;;;;;;;7.80;5.23;;;;;;;32.37;32.90;101452.41;5015460;28;20499;-47
2021/07/08 04:01:04;;;;;;;9.03;5.53;;;;;;;32.28;33.31;101452.75;5005822;28;20498;-45
2021/07/08 04:03:31;;;;;;;7.77;5.60;;;;;;;32.16;33.59;101455.00;5030049;28;20514;-46
2021/07/08 04:06:05;;;;;;;8.97;5.33;;;;;;;32.18;33.54;101447.78;5004839;28;20804;-46
2021/07/08 04:08:32;;;;;;;11.00;5.80;;;;;;;32.22;33.43;101459.22;5012310;28;20486;-45
2021/07/08 04:11:06;;;;;;;9.20;5.13;;;;;;;32.16;33.76;101465.69;5004262;28;20482;-46
2021/07/08 04:13:33;;;;;;;8.33;5.50;;;;;;;32.18;33.54;101478.94;5029655;28;20582;-44
2021/07/08 04:16:04;;;;;;;11.90;5.73;;;;;;;32.45;33.25;101470.84;5004867;28;20470;-46
2021/07/08 04:18:32;;;;;;;10.83;6.10;;;;;;;32.44;33.17;101474.41;5029791;28;20492;-46
2021/07/08 04:20:59;;;;;;;9.67;6.07;;;;;;;32.25;33.62;101479.56;5014370;28;20493;-46
2021/07/08 04:23:27;;;;;;;7.67;5.50;;;;;;;32.37;33.51;101483.56;5015288;28;20494;-46
2021/07/08 04:25:55;;;;;;;8.70;5.47;;;;;;;32.37;33.46;101479.09;5015106;28;20466;-48
2021/07/08 04:28:24;;;;;;;10.07;5.73;;;;;;;32.46;33.23;101481.44;5014872;28;20947;-48
2021/07/08 04:30:51;;;;;;;12.57;5.93;;;;;;;32.43;33.51;101489.56;5015353;28;20480;-49
2021/07/08 04:33:19;;;;;;;10.90;5.53;;;;;;;32.48;33.39;101485.88;5010720;28;20949;-44
2021/07/08 04:35:46;;;;;;;8.03;5.70;;;;;;;32.45;33.56;101487.69;5014895;28;20471;-48
2021/07/08 04:38:15;;;;;;;18.07;5.80;;;;;;;32.44;33.55;101487.75;5014041;28;20484;-48
2021/07/08 04:40:43;;;;;;;8.80;5.50;;;;;;;32.35;33.69;101490.75;5015285;28;20490;-47
2021/07/08 04:43:12;;;;;;;8.50;5.30;;;;;;;32.49;33.55;101484.94;5013789;28;20488;-44
2021/07/08 04:45:41;;;;;;;7.40;5.50;;;;;;;32.28;33.86;101479.44;5016080;28;20468;-46
2021/07/08 04:48:08;;;;;;;7.20;5.30;;;;;;;32.26;34.16;101482.19;5017572;28;20503;-49
2021/07/08 04:50:36;;;;;;;8.07;5.70;;;;;;;32.53;33.57;101492.75;5018675;28;20490;-46
2021/07/08 04:53:04;;;;;;;10.17;5.80;;;;;;;32.56;33.56;101494.44;5017171;28;20477;-48
2021/07/08 04:55:32;;;;;;;13.50;9.50;;;;;;;32.66;33.47;101501.13;5018574;28;20558;-47
2021/07/08 04:57:59;;;;;;;71.60;47.70;;;;;;;33.07;32.81;101491.50;5018843;28;20605;-46
2021/07/08 05:00:27;;;;;;;14.60;6.07;;;;;;;32.53;33.82;101510.56;5018254;28;20527;-48
2021/07/08 05:02:56;;;;;;;12.70;6.73;;;;;;;31.53;35.44;101515.00;5023441;28;20928;-48
2021/07/08 05:05:23;;;;;;;9.67;6.17;;;;;;;31.74;35.18;101522.31;5018325;28;20467;-45
2021/07/08 05:07:53;;;;;;;8.80;6.27;;;;;;;32.17;34.82;101517.22;5021925;28;20484;-44
2021/07/08 05:10:21;;;;;;;25.00;16.33;;;;;;;32.67;33.56;101520.69;5018850;28;20487;-44
2021/07/08 05:12:48;;;;;;;11.70;5.83;;;;;;;33.26;32.53;101513.84;5016529;28;20976;-47
2021/07/08 05:15:17;;;;;;;10.37;5.20;;;;;;;33.20;32.83;101506.09;5018367;28;20514;-46
2021/07/08 05:17:46;;;;;;;7.70;5.40;;;;;;;33.16;33.05;101504.47;5020479;28;20835;-46
2021/07/08 05:20:16;;;;;;;7.90;5.40;;;;;;;32.98;33.37;101508.81;5019559;28;20505;-45
2021/07/08 05:22:47;;;;;;;11.70;7.00;;;;;;;32.72;33.71;101522.22;5010773;28;20481;-45
2021/07/08 05:25:17;;;;;;;11.23;5.90;;;;;;;32.44;34.41;101523.34;5018116;28;20484;-48
2021/07/08 05:27:44;;;;;;;11.40;6.33;;;;;;;32.86;33.34;101518.16;5019867;28;20510;-49
2021/07/08 05:30:13;;;;;;;7.77;4.80;;;;;;;33.29;32.73;101515.53;5019528;28;20567;-45
2021/07/08 05:32:41;;;;;;;7.20;5.60;;;;;;;33.16;33.03;101517.84;5019780;28;20491;-46
2021/07/08 05:35:09;;;;;;;9.70;5.47;;;;;;;33.20;33.02;101516.78;5016839;28;20461;-45
2021/07/08 05:37:38;;;;;;;9.30;5.50;;;;;;;33.16;33.15;101508.97;5019774;28;20790;-48
2021/07/08 05:40:07;;;;;;;19.10;10.40;;;;;;;33.50;32.67;101511.09;5020284;28;20520;-46
2021/07/08 05:42:36;;;;;;;13.60;8.90;;;;;;;33.50;32.71;101504.88;5015505;28;20485;-46
2021/07/08 05:45:04;;;;;;;16.57;11.10;;;;;;;33.29;32.86;101503.94;5017540;28;20466;-46
2021/07/08 05:47:32;;;;;;;10.80;7.30;;;;;;;33.37;33.17;101500.03;5018467;28;20488;-44
2021/07/08 05:49:59;;;;;;;10.70;6.00;;;;;;;33.72;32.30;101501.25;5020676;28;20487;-47
2021/07/08 05:52:28;;;;;;;10.67;6.50;;;;;;;33.65;32.56;101495.28;5017737;28;20496;-44
2021/07/08 05:54:57;;;;;;;10.20;5.57;;;;;;;33.54;32.55;101504.66;5021362;28;20461;-47
2021/07/08 05:57:24;;;;;;;6.63;5.07;;;;;;;33.56;32.55;101512.63;5015012;28;20488;-44
2021/07/08 05:59:54;;;;;;;5.90;4.87;;;;;;;33.70;32.76;101509.34;5018565;28;20494;-46
2021/07/08 06:02:22;;;;;;;7.90;5.20;;;;;;;33.96;32.21;101520.66;5009622;28;20489;-44
2021/07/08 06:04:49;;;;;;;9.57;6.00;;;;;;;33.63;32.67;101521.25;5017461;28;20467;-44
2021/07/08 06:07:17;;;;;;;24.07;10.90;;;;;;;33.34;32.88;101524.22;5016521;28;20492;-46
2021/07/08 06:09:44;;;;;;;15.30;6.50;;;;;;;33.63;32.72;101523.94;5022510;28;20484;-47
2021/07/08 06:12:13;;;;;;;11.17;6.43;;;;;;;33.96;32.06;101517.13;5013489;28;20488;-47
2021/07/08 06:14:41;;;;;;;18.00;12.03;;;;;;;33.62;32.70;101517.69;5023181;28;20853;-45
2021/07/08 06:17:09;;;;;;;8.37;5.97;;;;;;;33.86;32.38;101525.56;5010152;28;20488;-45
2021/07/08 06:19:36;;;;;;;7.57;6.03;;;;;;;34.18;31.98;101520.56;5023480;28;20516;-48
2021/07/08 06:22:04;;;;;;;8.13;5.50;;;;;;;34.15;32.27;101519.84;5015137;28;20481;-45
2021/07/08 06:24:32;;;;;;;18.70;9.90;;;;;;;33.82;32.74;101521.28;5016966;28;20461;-46
2021/07/08 06:26:59;;;;;;;10.70;5.77;;;;;;;33.92;32.80;101529.75;5013390;28;20488;-49
2021/07/08 06:29:28;;;;;;;11.93;6.60;;;;;;;33.75;33.11;101528.72;5024218;28;20491;-45
2021/07/08 06:31:56;;;;;;;11.70;8.07;;;;;;;33.89;32.91;101528.09;5014530;28;20477;-46
2021/07/08 06:34:24;;;;;;;10.23;5.90;;;;;;;33.99;32.82;101531.22;5016958;28;20453;-48
2021/07/08 06:36:51;;;;;;;9.50;6.50;;;;;;;34.25;32.26;101537.25;5010357;28;20481;-46
2021/07/08 06:39:19;;;;;;;13.43;7.90;;;;;;;33.85;32.54;101544.34;5016558;28;20469;-47
2021/07/08 06:41:46;;;;;;;11.33;5.90;;;;;;;33.42;33.88;101541.75;5013695;28;20480;-44
2021/07/08 06:44:15;;;;;;;53.47;33.87;;;;;;;34.28;31.96;101554.94;5016893;28;20458;-47
2021/07/08 06:46:50;;;;;;;15.67;7.83;;;;;;;34.63;31.16;101552.44;5010483;28;20487;-47
2021/07/08 06:49:18;;;;;;;12.13;6.27;;;;;;;34.10;32.07;101554.88;5025002;28;20818;-46
2021/07/08 06:51:46;;;;;;;10.73;6.63;;;;;;;34.48;31.77;101559.38;5013233;28;20473;-44
2021/07/08 06:54:13;;;;;;;9.50;6.17;;;;;;;34.34;31.98;101560.00;5016457;28;20894;-48
2021/07/08 06:56:41;;;;;;;12.47;6.30;;;;;;;34.36;31.73;101570.66;5012735;28;20480;-47
2021/07/08 06:59:09;;;;;;;9.40;6.20;;;;;;;33.74;32.90;101571.59;5016193;28;20462;-46
2021/07/08 07:01:37;;;;;;;39.60;20.50;;;;;;;34.27;32.23;101574.63;5012222;28;20505;-49
2021/07/08 07:04:06;;;;;;;23.40;16.10;;;;;;;34.55;31.65;101571.53;5016274;28;20818;-46
2021/07/08 07:06:33;;;;;;;20.67;13.90;;;;;;;34.90;31.19;101569.94;5011832;28;20481;-47
2021/07/08 07:09:01;;;;;;;18.33;13.00;;;;;;;34.95;30.96;101563.41;5015956;28;20907;-48
2021/07/08 07:11:28;;;;;;;13.23;7.47;;;;;;;34.61;31.59;101571.25;5011527;28;20532;-46
2021/07/08 07:13:56;;;;;;;15.90;10.03;;;;;;;34.72;31.72;101562.75;5016155;28;20883;-46
2021/07/08 07:16:24;;;;;;;14.87;9.33;;;;;;;34.95;31.15;101560.72;5007758;28;20483;-46
2021/07/08 07:18:51;;;;;;;18.00;11.00;;;;;;;35.18;31.13;101558.75;5028117;28;20464;-50
2021/07/08 07:21:20;;;;;;;17.03;8.47;;;;;;;35.14;30.94;101557.16;5007340;28;20477;-44
2021/07/08 07:23:49;;;;;;;11.60;6.87;;;;;;;35.18;30.74;101557.88;5028550;28;20532;-45
2021/07/08 07:26:20;;;;;;;19.93;14.00;;;;;;;35.41;30.34;101556.69;5007416;28;20465;-48
2021/07/08 07:28:48;;;;;;;15.93;9.97;;;;;;;35.41;30.08;101552.22;5015983;28;20784;-45
2021/07/08 07:31:16;;;;;;;11.03;6.60;;;;;;;34.83;31.34;101558.66;5006998;28;20600;-48
2021/07/08 07:33:44;;;;;;;10.20;6.53;;;;;;;35.13;31.02;101567.03;5029145;28;20457;-46
2021/07/08 07:36:12;;;;;;;13.83;6.70;;;;;;;34.89;30.87;101574.44;5005932;28;20461;-46
2021/07/08 07:38:41;;;;;;;11.00;5.77;;;;;;;34.59;31.37;101559.75;5029124;28;20461;-47
2021/07/08 07:41:09;;;;;;;9.43;6.00;;;;;;;34.31;31.45;101570.88;5009602;28;20949;-46
2021/07/08 07:43:37;;;;;;;11.47;7.30;;;;;;;34.74;31.17;101571.56;5015702;28;20465;-45
2021/07/08 07:46:05;;;;;;;12.57;6.27;;;;;;;34.31;31.72;101570.88;5005581;28;20465;-45
2021/07/08 07:48:34;;;;;;;9.47;5.07;;;;;;;34.54;30.87;101572.47;5029795;28;20932;-46
2021/07/08 07:51:02;;;;;;;9.80;6.00;;;;;;;35.40;29.46;101558.53;5011911;28;20481;-46
2021/07/08 07:53:29;;;;;;;11.90;7.40;;;;;;;35.07;30.14;101567.31;5015111;28;20477;-47
2021/07/08 07:55:58;;;;;;;12.73;5.73;;;;;;;34.63;31.05;101575.66;5014288;28;20467;-48
2021/07/08 07:58:27;;;;;;;11.93;5.30;;;;;;;35.13;29.74;101572.41;5015327;28;20485;-45
2021/07/08 08:00:57;;;;;;;18.77;8.63;;;;;;;35.32;30.04;101563.41;5015426;28;20485;-47
2021/07/08 08:03:24;;;;;;;10.30;5.43;;;;;;;35.34;29.84;101566.00;5015150;28;20552;-45
2021/07/08 08:08:39;;;;;;;10.23;5.10;;;;;;;35.68;29.12;101575.03;5014865;28;20453;-48
2021/07/08 08:11:10;;;;;;;11.10;4.87;;;;;;;35.88;28.56;101573.97;5014201;28;20528;-46
2021/07/08 08:13:37;;;;;;;9.33;4.70;;;;;;;36.05;28.38;101589.19;5015457;28;20487;-50
2021/07/08 08:16:07;;;;;;;8.83;5.70;;;;;;;36.07;28.24;101583.72;5014171;28;20450;-45
2021/07/08 08:18:35;;;;;;;9.20;4.83;;;;;;;36.43;27.58;101573.75;5015307;28;20481;-48
2021/07/08 08:21:08;;;;;;;10.53;4.80;;;;;;;36.75;27.81;101573.81;5016192;28;20493;-45
2021/07/08 08:23:36;;;;;;;11.63;5.33;;;;;;;36.90;26.67;101580.13;5018857;28;20461;-48
2021/07/08 08:26:04;;;;;;;13.37;4.20;;;;;;;36.32;26.62;101582.41;5017850;28;20457;-45
2021/07/08 08:28:33;;;;;;;12.57;4.70;;;;;;;35.72;28.17;101579.28;5018946;28;20950;-45
2021/07/08 08:31:00;;;;;;;19.87;7.77;;;;;;;36.08;27.91;101580.09;5017740;28;20473;-48
2021/07/08 08:33:28;;;;;;;9.47;5.50;;;;;;;35.67;28.74;101592.06;5018780;28;20493;-45
2021/07/08 08:35:56;;;;;;;39.73;10.37;;;;;;;36.10;29.27;101586.28;5018811;28;20461;-47
2021/07/08 08:38:23;;;;;;;26.77;16.13;;;;;;;36.02;28.20;101592.03;5018287;28;20469;-45
2021/07/08 08:40:52;;;;;;;10.90;4.63;;;;;;;35.45;28.96;101592.25;5015871;28;20515;-47
2021/07/08 08:43:19;;;;;;;10.30;5.77;;;;;;;36.46;27.28;101582.53;5009813;28;20799;-48
2021/07/08 08:45:49;;;;;;;9.10;5.20;;;;;;;36.83;27.21;101576.94;5018668;28;20449;-47
2021/07/08 08:48:17;;;;;;;20.80;14.17;;;;;;;37.12;26.59;101579.75;5018448;28;20480;-47
2021/07/08 08:50:46;;;;;;;9.57;5.23;;;;;;;37.29;25.88;101584.16;5018720;28;20469;-46
2021/07/08 08:53:15;;;;;;;14.67;5.37;;;;;;;37.25;26.65;101587.97;5009409;28;20481;-48
2021/07/08 08:55:44;;;;;;;31.93;21.03;;;;;;;36.97;27.50;101594.09;5018349;28;20461;-45
2021/07/08 08:58:14;;;;;;;28.17;19.17;;;;;;;37.14;27.48;101598.50;5017137;28;20481;-45
2021/07/08 09:00:53;;;;;;;21.03;12.80;;;;;;;36.96;27.76;101592.34;5018488;28;20489;-45
2021/07/08 09:03:23;;;;;;;13.40;6.27;;;;;;;37.18;26.06;101585.75;5017005;28;20485;-46
2021/07/08 09:06:00;;;;;;;15.03;8.70;;;;;;;37.12;26.38;101590.53;5018437;28;20777;-46
2021/07/08 09:08:27;;;;;;;37.00;24.23;;;;;;;37.21;26.72;101585.56;4998394;28;20458;-47
2021/07/08 09:11:07;;;;;;;11.93;6.13;;;;;;;36.91;26.38;101584.56;4998911;28;20792;-46
2021/07/08 09:13:55;;;;;;;20.10;13.60;;;;;;;37.35;26.87;101582.94;4998304;28;20469;-47
2021/07/08 09:16:30;;;;;;;15.77;9.60;;;;;;;37.64;26.82;101582.16;5001288;28;20499;-48
2021/07/08 09:19:15;;;;;;;24.17;14.90;;;;;;;37.46;26.94;101579.59;5018403;28;20464;-45
2021/07/08 09:21:46;;;;;;;12.37;4.00;;;;;;;37.82;25.14;101580.16;5011378;28;20489;-45
2021/07/08 09:24:19;;;;;;;16.87;4.97;;;;;;;37.55;26.27;101579.03;5027434;28;20457;-44
2021/07/08 09:26:54;;;;;;;16.37;11.00;;;;;;;37.58;26.58;101595.97;5006150;28;20473;-47
2021/07/08 09:29:23;;;;;;;64.60;45.97;;;;;;;37.41;27.68;101603.19;5022897;28;20763;-44
2021/07/08 09:31:54;;;;;;;16.93;11.17;;;;;;;37.24;27.71;101601.50;5016496;28;20470;-46
2021/07/08 09:34:23;;;;;;;15.67;9.40;;;;;;;37.38;25.98;101598.03;5017921;28;20523;-47
2021/07/08 09:37:03;;;;;;;21.90;12.20;;;;;;;37.39;26.39;101586.28;5016374;28;20478;-46
2021/07/08 09:39:32;;;;;;;13.13;5.23;;;;;;;36.99;25.88;101589.47;5017896;28;20563;-46
2021/07/08 09:42:00;;;;;;;14.87;4.80;;;;;;;37.28;25.38;101582.41;5016394;28;20486;-47
2021/07/08 09:44:29;;;;;;;10.30;5.13;;;;;;;36.97;25.12;101584.22;5017898;28;20464;-46
2021/07/08 09:46:58;;;;;;;11.53;3.37;;;;;;;36.39;25.26;101591.88;5016087;28;20477;-47
2021/07/08 09:49:27;;;;;;;15.87;11.03;;;;;;;37.22;25.69;101604.31;5017930;28;20860;-48
2021/07/08 09:51:56;;;;;;;16.00;4.00;;;;;;;37.23;25.00;101611.44;5016373;28;20473;-44
2021/07/08 09:57:32;;;;;;;15.30;8.10;;;;;;;37.04;25.14;101619.66;5005419;28;20785;-50
2021/07/08 10:00:00;;;;;;;10.43;6.00;;;;;;;37.51;24.73;101623.22;5017328;28;20488;-47
2021/07/08 10:02:33;;;;;;;11.50;4.67;;;;;;;37.54;25.51;101608.72;5016061;28;20489;-46
2021/07/08 10:05:01;;;;;;;9.53;4.40;;;;;;;36.82;26.04;101604.75;5017469;28;20465;-47
2021/07/08 10:07:29;;;;;;;17.37;10.20;;;;;;;37.50;26.01;101602.66;5015461;28;20488;-48
2021/07/08 10:09:57;;;;;;;9.10;3.70;;;;;;;37.63;23.54;101601.97;5017420;28;20572;-48
2021/07/08 10:12:25;;;;;;;6.80;3.60;;;;;;;37.68;24.30;101602.56;5016102;28;20473;-45
2021/07/08 10:14:53;;;;;;;9.27;5.90;;;;;;;37.67;24.18;101598.13;5017349;28;20629;-45
2021/07/08 10:17:21;;;;;;;11.00;3.80;;;;;;;37.66;24.53;101596.38;5015725;28;20508;-46
2021/07/08 10:19:52;;;;;;;9.23;4.30;;;;;;;37.70;24.94;101589.84;5017042;28;20485;-47
2021/07/08 10:22:20;;;;;;;23.07;14.80;;;;;;;38.08;25.31;101594.72;5015782;28;20489;-49
2021/07/08 10:24:48;;;;;;;39.27;24.60;;;;;;;37.77;26.10;101593.06;5017266;28;20461;-44
2021/07/08 10:27:16;;;;;;;19.40;11.00;;;;;;;37.69;25.60;101593.50;5015489;28;20481;-48
2021/07/08 10:29:43;;;;;;;39.10;27.43;;;;;;;37.89;25.42;101586.03;5016649;28;20477;-47
2021/07/08 10:32:13;;;;;;;22.87;15.37;;;;;;;38.18;25.19;101595.00;5015609;28;20798;-46
2021/07/08 10:34:45;;;;;;;13.37;6.60;;;;;;;38.23;24.38;101589.31;5016762;28;20461;-45
2021/07/08 10:37:28;;;;;;;10.50;6.97;;;;;;;38.41;25.49;101587.31;5015308;28;20526;-49
2021/07/08 10:40:26;;;;;;;15.37;10.67;;;;;;;38.31;25.67;101591.53;5016530;28;21377;-47
2021/07/08 10:42:54;;;;;;;13.53;5.70;;;;;;;37.83;24.82;101588.16;5014850;28;20490;-47
2021/07/08 10:45:43;;;;;;;9.40;5.13;;;;;;;38.28;25.08;101586.38;5016704;28;20461;-48
2021/07/08 10:48:14;;;;;;;6.97;3.60;;;;;;;38.05;25.48;101583.25;5015244;28;20485;-49
2021/07/08 10:50:43;;;;;;;9.17;4.50;;;;;;;38.30;24.40;101590.69;5016586;28;20481;-47
2021/07/08 10:53:17;;;;;;;11.50;4.17;;;;;;;38.16;24.61;101587.97;5016087;28;20490;-47
2021/07/08 10:55:46;;;;;;;10.60;5.30;;;;;;;37.46;23.97;101578.75;5016280;28;20462;-45
2021/07/08 10:58:37;;;;;;;8.33;4.50;;;;;;;37.76;23.87;101586.78;5020999;28;20520;-49
2021/07/08 11:01:06;;;;;;;24.40;16.40;;;;;;;38.27;23.94;101585.50;5005929;28;20485;-45
2021/07/08 11:03:42;;;;;;;6.70;3.10;;;;;;;37.13;24.09;101584.22;5030248;28;20503;-45
2021/07/08 11:06:24;;;;;;;7.73;4.80;;;;;;;36.62;24.72;101584.38;5006655;28;20962;-48
2021/07/08 11:09:02;;;;;;;10.73;4.87;;;;;;;37.15;24.93;101586.78;5027164;28;20460;-47
2021/07/08 11:12:00;;;;;;;13.37;5.27;;;;;;;37.43;24.69;101579.78;5014482;28;20943;-46
2021/07/08 11:14:29;;;;;;;9.03;4.00;;;;;;;38.26;23.29;101578.38;5016272;28;20467;-48
2021/07/08 11:16:59;;;;;;;12.53;4.10;;;;;;;37.40;24.41;101577.25;5014763;28;20481;-45
2021/07/08 11:19:33;;;;;;;17.00;4.13;;;;;;;37.60;24.60;101575.22;5016174;28;20470;-46
2021/07/08 11:22:03;;;;;;;17.90;10.97;;;;;;;38.17;23.69;101574.44;5014844;28;20481;-49
2021/07/08 11:24:50;;;;;;;15.97;10.57;;;;;;;38.34;24.35;101567.13;5015957;28;20453;-45
2021/07/08 11:27:23;;;;;;;9.43;6.13;;;;;;;37.92;24.70;101566.97;5014251;28;20956;-47
2021/07/08 11:29:52;;;;;;;19.40;10.33;;;;;;;37.90;23.82;101558.16;5012508;28;20481;-45
2021/07/08 11:32:22;;;;;;;22.40;14.27;;;;;;;38.09;24.00;101553.38;5014639;28;20481;-46
2021/07/08 11:34:52;;;;;;;14.00;9.60;;;;;;;38.70;24.41;101551.38;5015875;28;20450;-50